• Join FlightAware (Why Join?)
  • Login
  • US Flag 
03:14AM EDT


 

Airport Tracker/Info


-or-


 

Live Flight TrackerFlight Track Log ✈ SWA1924 ✈ 28-Feb-2012 ✈ KSTL - KDAL

Flight Track Log - Related Links

Times and Time Zones

All times are in EST time to prevent confusion due to time zone crossing. See the SWA1924 flight status page for this flight to view local times or setup timezone preferences in your user account.

Time Position Orientation Groundspeed Altitude Reporting Facility
EST Latitude Longitude Course Direction KTS MPH feet Rate Location/Type
09:17AM 38.7311 -90.2861 115° Southeast 137 158 2,100  Level FAA TRACON SMA TRACON (SMA)
09:18AM 38.7164 -90.2458 127° Southeast 189 217 3,800 2,340 Climbing FAA TRACON SMA TRACON (SMA)
09:19AM 38.6922 -90.2042 194° South 251 289 5,200 3,300 Climbing FAA TRACON SMA TRACON (SMA)
09:19AM 38.6472 -90.2183 249° West 270 311 8,200 4,020 Climbing FAA TRACON SMA TRACON (SMA)
09:20AM 38.6283 -90.2814 238° Southwest 278 320 10,700 3,000 Climbing FAA TRACON SMA TRACON (SMA)
09:21AM 38.6000 -90.3394 228° Southwest 324 373 12,200 2,880 Climbing FAA TRACON SMA TRACON (SMA)
09:21AM 38.5567 -90.4000 228° Southwest 337 388 14,600 3,600 Climbing FAA TRACON SMA TRACON (SMA)
09:22AM 38.5119 -90.4631 228° Southwest 346 398 17,100 2,520 Climbing FAA TRACON SMA TRACON (SMA)
09:23AM 38.4717 -90.5200 220° Southwest 350 403 18,000 660 Climbing FAA TRACON SMA TRACON (SMA)
09:23AM 38.4203 -90.5756 217° Southwest 351 404 18,000  Level FAA TRACON SMA TRACON (SMA)
09:24AM 38.3664 -90.6267 216° Southwest 348 400 18,000  Level FAA TRACON SMA TRACON (SMA)
09:25AM 38.3183 -90.6708 216° Southwest 347 399 18,000  Level FAA TRACON SMA TRACON (SMA)
09:25AM 38.2644 -90.7214 217° Southwest 347 399 18,000  Level FAA TRACON SMA TRACON (SMA)
09:26AM 38.2164 -90.7667 217° Southwest 349 402 18,000 240 Level FAA TRACON SMA TRACON (SMA)
09:27AM 38.1622 -90.8181 216° Southwest 353 406 18,400 1,740 Climbing FAA TRACON SMA TRACON (SMA)
09:27AM 38.1056 -90.8697 217° Southwest 364 419 20,300 2,580 Climbing FAA TRACON SMA TRACON (SMA)
09:28AM 38.0544 -90.9194 227° Southwest 376 433 21,900 2,640 Climbing FAA TRACON SMA TRACON (SMA)
09:29AM 38.0042 -90.9867 226° Southwest 379 436 23,900 2,760 Climbing FAA TRACON SMA TRACON (SMA)
09:29AM 37.9525 -91.0542 241° Southwest 386 444 25,600 2,220 Climbing FAA TRACON SMA TRACON (SMA)
09:30AM 37.8961 -91.1850 226° Southwest 388 447 27,200 1,920 Climbing Kansas City Center
09:31AM 37.8194 -91.2856 226° Southwest 399 459 29,100 1,980 Climbing Kansas City Center
09:32AM 37.7369 -91.3917 225° Southwest 404 465 31,200 1,920 Climbing Kansas City Center
09:33AM 37.6561 -91.4947 226° Southwest 414 476 33,000 1,800 Climbing Kansas City Center
09:34AM 37.5772 -91.5972 224° Southwest 414 476 34,800 1,920 Climbing Kansas City Center
09:35AM 37.4942 -91.7000 226° Southwest 419 482 36,900 1,560 Climbing Kansas City Center
09:36AM 37.4192 -91.7969 227° Southwest 413 475 38,000 1,200 Climbing Kansas City Center
09:37AM 37.3464 -91.8936 225° Southwest 399 459 39,300 600 Climbing Kansas City Center
09:39AM 37.1717 -92.1089 225° Southwest 382 440 40,000 180 Climbing Memphis Center
09:40AM 37.0956 -92.2033 225° Southwest 382 440 40,000  Level Memphis Center
09:41AM 37.0211 -92.2978 225° Southwest 382 440 40,000  Level Memphis Center
09:42AM 36.9467 -92.3894 225° Southwest 382 440 40,000  Level Memphis Center
09:43AM 36.8722 -92.4836 224° Southwest 382 440 40,000  Level Memphis Center
09:44AM 36.7956 -92.5747 225° Southwest 382 440 40,000  Level Memphis Center
09:45AM 36.7208 -92.6686 226° Southwest 382 440 40,000  Level Memphis Center
09:46AM 36.6483 -92.7622 223° Southwest 382 440 40,000  Level Memphis Center
09:47AM 36.5736 -92.8503 226° Southwest 376 433 40,000  Level Memphis Center
09:48AM 36.5008 -92.9436 223° Southwest 376 433 40,000  Level Memphis Center
09:49AM 36.4239 -93.0314 224° Southwest 376 433 40,000  Level Memphis Center
09:50AM 36.3511 -93.1192 225° Southwest 376 433 40,000  Level Memphis Center
09:51AM 36.2783 -93.2094 224° Southwest 376 433 40,000  Level Memphis Center
09:52AM 36.2097 -93.2919 225° Southwest 381 438 40,000  Level Memphis Center
09:53AM 36.1344 -93.3844 224° Southwest 381 438 40,000  Level Memphis Center
09:54AM 36.0614 -93.4714 224° Southwest 381 438 40,000  Level Memphis Center
09:55AM 35.9861 -93.5611 224° Southwest 376 433 40,000  Level Memphis Center
09:56AM 35.9108 -93.6503 224° Southwest 381 438 40,000  Level Memphis Center
09:57AM 35.8333 -93.7419 225° Southwest 381 438 40,000  Level Memphis Center
09:58AM 35.7600 -93.8311 225° Southwest 381 438 40,000  Level Memphis Center
09:59AM 35.6844 -93.9225 224° Southwest 381 438 40,000  Level Memphis Center
10:00AM 35.6044 -94.0161 224° Southwest 381 438 40,000  Level Memphis Center
10:01AM 35.5289 -94.1047 224° Southwest 382 440 40,000  Level Memphis Center
10:02AM 35.4531 -94.1956 224° Southwest 382 440 40,000  Level Memphis Center
10:03AM 35.3775 -94.2836 221° Southwest 382 440 40,000  Level Memphis Center
10:04AM 35.2953 -94.3714 222° Southwest 382 440 40,000  Level Memphis Center
10:05AM 35.2175 -94.4567 221° Southwest 382 440 40,000  Level Memphis Center
10:06AM 35.1375 -94.5417 222° Southwest 382 440 40,000  Level Memphis Center
10:07AM 35.0594 -94.6264 223° Southwest 382 440 40,000  Level Memphis Center
10:09AM 34.9606 -94.7383 221° Southwest 394 453 40,000  Level Fort Worth Center
10:10AM 34.8831 -94.8217 223° Southwest 388 447 40,000  Level Fort Worth Center
10:11AM 34.8139 -94.8997 221° Southwest 382 440 40,000  Level Fort Worth Center
10:12AM 34.7361 -94.9828 220° Southwest 382 440 40,000  Level Fort Worth Center
10:13AM 34.6583 -95.0633 220° Southwest 382 440 40,000 -180 Level Fort Worth Center
10:14AM 34.5806 -95.1436 221° Southwest 377 434 39,700 -660 Descending Fort Worth Center
10:15AM 34.5028 -95.2261 223° Southwest 377 434 38,700 -960 Descending Fort Worth Center
10:16AM 34.4269 -95.3111 220° Southwest 369 425 37,800 -1,140 Descending Fort Worth Center
10:17AM 34.3492 -95.3911 221° Southwest 374 430 36,500 -1,860 Descending Fort Worth Center
10:18AM 34.2689 -95.4758 218° Southwest 379 436 34,100 -2,460 Descending Fort Worth Center
10:19AM 34.1847 -95.5556 214° Southwest 385 443 31,600 -2,520 Descending Fort Worth Center
10:20AM 34.1022 -95.6225 218° Southwest 398 458 29,100 -3,180 Descending Fort Worth Center
10:21AM 34.0053 -95.7147 214° Southwest 383 441 25,300 -3,360 Descending Fort Worth Center
10:22AM 33.9208 -95.7839 216° Southwest 383 441 22,400 -2,700 Descending Fort Worth Center
10:23AM 33.8464 -95.8481 214° Southwest 377 434 20,000 -2,760 Descending Fort Worth Center
10:24AM 33.7556 -95.9219 215° Southwest 377 434 16,900 -2,820 Descending Fort Worth Center
10:25AM 33.6831 -95.9831 215° Southwest 371 427 14,400 -2,580 Descending Fort Worth Center
10:26AM 33.5983 -96.0544 215° Southwest 354 407 11,800 -2,220 Descending Fort Worth Center
10:27AM 33.5322 -96.1103 222° Southwest 340 391 10,000 -1,500 Descending Fort Worth Center
10:27AM 33.4825 -96.1631 214° Southwest 283 326 9,200 -780 Descending FAA TRACON SMA TRACON (SMA)
10:28AM 33.4417 -96.1956 213° Southwest 251 289 8,900 -240 Descending FAA TRACON SMA TRACON (SMA)
10:29AM 33.4019 -96.2269 215° Southwest 246 283 8,900  Level FAA TRACON SMA TRACON (SMA)
10:29AM 33.3672 -96.2556 215° Southwest 244 281 8,900  Level FAA TRACON SMA TRACON (SMA)
10:30AM 33.3281 -96.2886 213° Southwest 247 284 8,900  Level FAA TRACON SMA TRACON (SMA)
10:31AM 33.2917 -96.3167 221° Southwest 250 288 8,900  Level FAA TRACON SMA TRACON (SMA)
10:31AM 33.2556 -96.3542 239° Southwest 249 287 8,900 -720 Level FAA TRACON SMA TRACON (SMA)
10:32AM 33.2306 -96.4039 238° Southwest 254 292 8,000 -1,500 Descending FAA TRACON SMA TRACON (SMA)
10:33AM 33.2075 -96.4478 241° Southwest 253 291 6,900 -1,620 Descending FAA TRACON SMA TRACON (SMA)
10:33AM 33.1833 -96.4992 240° Southwest 255 293 5,900 -1,500 Descending FAA TRACON SMA TRACON (SMA)
10:34AM 33.1592 -96.5492 240° Southwest 249 287 4,900 -1,380 Descending FAA TRACON SMA TRACON (SMA)
10:35AM 33.1381 -96.5922 240° Southwest 243 280 4,100 -780 Descending FAA TRACON SMA TRACON (SMA)
10:35AM 33.1153 -96.6386 241° Southwest 234 269 3,900 -180 Descending FAA TRACON SMA TRACON (SMA)
10:36AM 33.0931 -96.6856 241° Southwest 234 269 3,900 -780 Level FAA TRACON SMA TRACON (SMA)
10:37AM 33.0708 -96.7331 241° Southwest 239 275 2,900 -780 Descending FAA TRACON SMA TRACON (SMA)
10:37AM 33.0514 -96.7753 242° Southwest 238 274 2,900  Level FAA TRACON SMA TRACON (SMA)
10:38AM 33.0311 -96.8203 242° Southwest 217 250 2,900  Level FAA TRACON SMA TRACON (SMA)
10:39AM 33.0150 -96.8564 243° Southwest 199 229 2,900  Level FAA TRACON SMA TRACON (SMA)
10:39AM 32.9981 -96.8967 232° Southwest 195 224 2,900  Level FAA TRACON SMA TRACON (SMA)
10:40AM 32.9775 -96.9281 205° Southwest 179 206 2,900 -420 Level FAA TRACON SMA TRACON (SMA)
10:41AM 32.9486 -96.9442 171° South 166 191 2,400 -780 Descending FAA TRACON SMA TRACON (SMA)
10:41AM 32.9225 -96.9394 143° Southeast 156 180 1,900 -540 Descending FAA TRACON SMA TRACON (SMA)
10:42AM 32.8997 -96.9189 135° Southeast 146 168 1,700 -480 Descending FAA TRACON SMA TRACON (SMA)
10:43AM 32.8853 -96.9019 135° Southeast 117 135 1,300 -600 Descending FAA TRACON SMA TRACON (SMA)
10:43AM 32.8689 -96.8825 135° Southeast 118 136 900 -600 Descending FAA TRACON SMA TRACON (SMA)
10:44AM 32.8539 -96.8647 135° Southeast 125 144 500 -600 Descending FAA TRACON SMA TRACON (SMA)